Portada
METAR-TAF:

METAR-TAF

Aeropuertos :

Aeropuerto Internacional de Shanghái-Pudong

Shanghái-Pudong, China

latitud: 31-07N, longitud: 121-46E, altitud: 4 m

Observación

El informe se hizo hace 20 minutos, a las 13:30 UTC
Viento 10 kt del sureste
Temperatura 7°C
Humedad 81%
Presión 1024 hPa
Visibilidad: 8000 m

METAR: ZSPD 181330Z 14005MPS 8000 NSC 07/04 Q1024 NOSIG

Hora: 21:50 (13:50 UTC)

Pronóstico

El informe se hizo hace 4 horas y 37 minutos, a las 09:13 UTC
Pronóstico válido del 18 a las 12 UTC al 19 a las 12 UTC
Viento 6 kt del sureste
Visibilidad: 5000 m
Cielo nuboso a una altura de 1600 ft
calima
Evolucionando progresivamente
del 19 a las 04 UTC al 19 a las 06 UTC
Viento 8 kt del oeste

TAF: ZSPD 180913Z 1812/1912 14003MPS 5000 HZ BKN016 TX13/1906Z TN04/1821Z BECMG 1904/1906 27004MPS

Observaciones y pronósticos meteorológicos de más de 4000 aeropuertos (mensajes METAR y TAF).

Los puntos amarillos y rojos representan las estaciones disponibles.

Ponga el ratón en el punto deseado para ver el nombre de la estación.

Haga clic para ver las observaciones y los pronósticos meteorológicos.

Para cambiar el mapa : haga clic en los botones verdes con una cruz de color negro para hacer un zoom, en el botón verde con un guión para alejar o en las flechas verdes para mapas adyacentes.


METAR-TAF: